createdAt,value
2022-08-03T00:01:44.500Z,18.56
2022-08-03T00:04:12.432Z,18.53
2022-08-03T00:06:40.166Z,18.51
2022-08-03T00:09:08.371Z,18.49
2022-08-03T00:11:37.101Z,18.47
2022-08-03T00:14:05.783Z,18.44
2022-08-03T00:16:34.344Z,18.41
2022-08-03T00:19:03.286Z,18.34
2022-08-03T00:21:31.048Z,18.28
2022-08-03T00:23:58.799Z,18.24
2022-08-03T00:26:26.628Z,18.20
2022-08-03T00:28:54.389Z,18.18
2022-08-03T00:31:35.226Z,18.15
2022-08-03T00:34:08.131Z,18.11
2022-08-03T00:36:36.225Z,18.10
2022-08-03T00:39:04.282Z,18.09
2022-08-03T00:41:32.052Z,18.09
2022-08-03T00:43:59.804Z,18.09
2022-08-03T00:46:27.648Z,18.09
2022-08-03T00:48:55.522Z,18.09
2022-08-03T00:51:24.069Z,18.10
2022-08-03T00:53:51.822Z,18.11
2022-08-03T00:56:19.778Z,18.11
2022-08-03T00:58:47.683Z,18.11
2022-08-03T01:01:16.637Z,18.11
2022-08-03T01:03:45.519Z,18.11
2022-08-03T01:06:20.091Z,18.10
2022-08-03T01:09:22.944Z,18.11
2022-08-03T01:12:04.045Z,18.12
2022-08-03T01:14:41.715Z,18.14
2022-08-03T01:17:19.353Z,18.15
2022-08-03T01:19:56.770Z,18.15
2022-08-03T01:22:33.476Z,18.16
2022-08-03T01:25:16.331Z,18.16
2022-08-03T01:27:49.992Z,18.16
2022-08-03T01:30:17.860Z,18.16
2022-08-03T01:33:00.888Z,18.17
2022-08-03T01:35:43.302Z,18.20
2022-08-03T01:38:15.306Z,18.22
2022-08-03T01:40:44.960Z,18.24
2022-08-03T01:43:55.312Z,18.26
2022-08-03T01:46:09.712Z,18.27
2022-08-03T01:48:40.014Z,18.28
2022-08-03T01:51:10.573Z,18.30
2022-08-03T01:53:43.994Z,18.32
2022-08-03T01:56:13.980Z,18.34
2022-08-03T01:58:44.534Z,18.36
2022-08-03T02:01:13.791Z,18.37
2022-08-03T02:04:00.301Z,18.38
2022-08-03T02:06:59.987Z,18.39
2022-08-03T02:09:22.079Z,18.41
2022-08-03T02:11:52.097Z,18.42
2022-08-03T02:14:22.085Z,18.44
2022-08-03T02:16:51.267Z,18.45
2022-08-03T02:19:19.690Z,18.47
2022-08-03T02:21:56.803Z,18.47
2022-08-03T02:24:30.044Z,18.47
2022-08-03T02:26:59.229Z,18.47
2022-08-03T02:29:39.688Z,18.46
2022-08-03T02:32:15.119Z,18.48
2022-08-03T02:34:47.608Z,18.49
2022-08-03T02:37:18.667Z,18.50
2022-08-03T02:39:47.996Z,18.51
2022-08-03T02:42:18.879Z,18.51
2022-08-03T02:44:50.465Z,18.51
2022-08-03T02:47:21.421Z,18.50
2022-08-03T02:49:52.390Z,18.50
2022-08-03T02:52:23.411Z,18.49
2022-08-03T02:54:55.055Z,18.44
2022-08-03T02:57:25.713Z,18.38
2022-08-03T02:59:55.163Z,18.32
2022-08-03T03:02:24.975Z,18.28
2022-08-03T03:04:58.079Z,18.26
2022-08-03T03:07:51.490Z,18.24
2022-08-03T03:10:22.679Z,18.19
2022-08-03T03:12:52.775Z,18.16
2022-08-03T03:15:21.067Z,18.14
2022-08-03T03:17:51.285Z,18.15
2022-08-03T03:20:29.068Z,18.14
2022-08-03T03:23:00.322Z,18.09
2022-08-03T03:25:31.821Z,18.06
2022-08-03T03:28:02.248Z,18.05
2022-08-03T03:30:30.200Z,18.05
2022-08-03T03:32:58.995Z,18.05
2022-08-03T03:35:27.837Z,18.04
2022-08-03T03:37:56.581Z,18.00
2022-08-03T03:40:24.927Z,17.94
2022-08-03T03:42:52.858Z,17.89
2022-08-03T03:45:22.137Z,17.86
2022-08-03T03:47:50.323Z,17.85
2022-08-03T03:50:19.558Z,17.86
2022-08-03T03:52:47.297Z,17.86
2022-08-03T03:55:18.607Z,17.85
2022-08-03T03:57:46.764Z,17.79
2022-08-03T04:00:16.732Z,17.74
2022-08-03T04:02:46.200Z,17.73
2022-08-03T04:05:33.798Z,17.72
2022-08-03T04:08:25.235Z,17.74
2022-08-03T04:11:02.886Z,17.76
2022-08-03T04:13:37.792Z,17.76
2022-08-03T04:16:07.977Z,17.74
2022-08-03T04:18:39.073Z,17.72
2022-08-03T04:21:11.394Z,17.72
2022-08-03T04:23:44.053Z,17.74
2022-08-03T04:26:15.132Z,17.79
2022-08-03T04:28:48.123Z,17.84
2022-08-03T04:31:18.091Z,17.90
2022-08-03T04:33:46.952Z,17.96
2022-08-03T04:36:21.219Z,18.03
2022-08-03T04:39:04.504Z,18.10
2022-08-03T04:42:07.020Z,18.17
2022-08-03T04:44:28.444Z,18.25
2022-08-03T04:46:58.360Z,18.31
2022-08-03T04:49:27.027Z,18.37
2022-08-03T04:51:54.866Z,18.43
2022-08-03T04:54:22.636Z,18.48
2022-08-03T04:56:50.335Z,18.53
2022-08-03T04:59:18.166Z,18.57
2022-08-03T05:01:46.050Z,18.61
2022-08-03T05:04:14.570Z,18.65
2022-08-03T05:06:48.070Z,18.68
2022-08-03T05:09:49.848Z,18.70
2022-08-03T05:12:08.953Z,18.72
2022-08-03T05:14:38.854Z,18.74
2022-08-03T05:17:07.288Z,18.76
2022-08-03T05:19:35.337Z,18.80
2022-08-03T05:22:03.380Z,18.83
2022-08-03T05:24:31.051Z,18.86
2022-08-03T05:26:58.803Z,18.87
2022-08-03T05:29:26.560Z,18.88
2022-08-03T05:31:54.318Z,18.90
2022-08-03T05:34:22.074Z,18.92
2022-08-03T05:36:49.741Z,18.95
2022-08-03T05:39:17.501Z,18.99
2022-08-03T05:41:45.294Z,19.02
2022-08-03T05:44:13.023Z,19.06
2022-08-03T05:46:40.718Z,19.10
2022-08-03T05:49:08.514Z,19.14
2022-08-03T05:51:37.219Z,19.19
2022-08-03T05:54:05.158Z,19.24
2022-08-03T05:56:32.992Z,19.26
2022-08-03T05:59:16.322Z,19.28
2022-08-03T06:01:48.580Z,19.31
2022-08-03T06:04:19.173Z,19.34
2022-08-03T06:06:47.617Z,19.36
2022-08-03T06:09:18.066Z,19.38
2022-08-03T06:11:45.998Z,19.40
2022-08-03T06:14:13.781Z,19.43
2022-08-03T06:16:41.543Z,19.44
2022-08-03T06:19:09.457Z,19.45
2022-08-03T06:21:37.225Z,19.45
2022-08-03T06:24:08.073Z,19.47
2022-08-03T06:26:35.878Z,19.48
2022-08-03T06:29:03.897Z,19.46
2022-08-03T06:31:32.364Z,19.42
2022-08-03T06:34:33.749Z,19.38
2022-08-03T06:36:52.279Z,19.32
2022-08-03T06:39:24.349Z,19.30
2022-08-03T06:41:53.544Z,19.27
2022-08-03T06:44:21.324Z,19.27
2022-08-03T06:46:49.374Z,19.30
2022-08-03T06:49:17.674Z,19.33
2022-08-03T06:52:05.090Z,19.34
2022-08-03T06:54:33.950Z,19.37
2022-08-03T06:57:01.791Z,19.40
2022-08-03T07:00:06.051Z,19.45
2022-08-03T07:02:19.880Z,19.52
2022-08-03T07:04:50.633Z,19.59
2022-08-03T07:07:19.482Z,19.67
2022-08-03T07:09:55.660Z,19.78
2022-08-03T07:12:29.830Z,19.88
2022-08-03T07:15:02.126Z,20.00
2022-08-03T07:17:32.822Z,20.13
2022-08-03T07:20:01.814Z,20.24
2022-08-03T07:22:29.696Z,20.34
2022-08-03T07:24:57.864Z,20.45
2022-08-03T07:27:27.139Z,20.56
2022-08-03T07:29:55.726Z,20.67
2022-08-03T07:32:24.192Z,20.81
2022-08-03T07:34:53.098Z,20.95
2022-08-03T07:37:23.520Z,21.09
2022-08-03T07:39:51.296Z,21.23
2022-08-03T07:42:19.263Z,21.37
2022-08-03T07:44:47.123Z,21.55
2022-08-03T07:47:22.435Z,21.77
2022-08-03T07:49:50.881Z,22.01
2022-08-03T07:52:54.235Z,22.34
2022-08-03T07:55:25.120Z,22.60
2022-08-03T07:58:12.309Z,22.70
2022-08-03T08:00:40.223Z,22.90
2022-08-03T08:03:08.364Z,23.74
2022-08-03T08:05:37.377Z,24.98
2022-08-03T08:08:05.883Z,26.26
2022-08-03T08:10:33.980Z,27.34
2022-08-03T08:13:01.913Z,28.14
2022-08-03T08:15:30.103Z,28.96
2022-08-03T08:18:00.219Z,29.60
2022-08-03T08:20:31.731Z,29.67
2022-08-03T08:23:17.302Z,29.71
2022-08-03T08:25:56.330Z,30.62
2022-08-03T08:28:32.935Z,31.00
2022-08-03T08:31:02.135Z,31.32
2022-08-03T08:33:54.217Z,31.88
2022-08-03T08:36:19.434Z,31.70
2022-08-03T08:38:47.882Z,31.60
2022-08-03T08:41:16.254Z,32.63
2022-08-03T08:43:44.056Z,34.31
2022-08-03T08:46:23.274Z,35.90
2022-08-03T08:48:53.830Z,37.21
2022-08-03T08:51:22.702Z,37.97
2022-08-03T08:53:53.925Z,37.84
2022-08-03T08:56:26.021Z,37.58
2022-08-03T08:58:58.664Z,37.10
2022-08-03T09:01:27.557Z,36.85
2022-08-03T09:03:55.553Z,36.62
2022-08-03T09:06:24.409Z,36.92
2022-08-03T09:08:52.432Z,37.42
2022-08-03T09:11:57.589Z,36.97
2022-08-03T09:14:37.070Z,36.77
2022-08-03T09:17:02.274Z,37.17
2022-08-03T09:19:31.875Z,38.01
2022-08-03T09:22:13.406Z,38.61
2022-08-03T09:25:22.877Z,38.18
2022-08-03T09:27:47.260Z,37.33
2022-08-03T09:30:33.155Z,37.04
2022-08-03T09:33:05.055Z,37.44
2022-08-03T09:38:26.473Z,39.87
2022-08-03T09:40:59.878Z,40.74
2022-08-03T09:43:28.821Z,41.33
2022-08-03T09:46:05.219Z,41.71
2022-08-03T09:48:37.358Z,41.97
2022-08-03T09:51:14.467Z,41.56
2022-08-03T09:53:59.626Z,40.12
2022-08-03T09:56:41.287Z,39.07
2022-08-03T09:59:10.710Z,38.31
2022-08-03T10:01:41.929Z,37.99
2022-08-03T10:04:15.314Z,37.54
2022-08-03T10:06:46.897Z,36.79
2022-08-03T10:09:16.620Z,36.10
2022-08-03T10:11:47.053Z,35.56
2022-08-03T10:14:21.012Z,35.15
2022-08-03T10:16:49.734Z,34.77
2022-08-03T10:19:17.644Z,34.41
2022-08-03T10:21:53.759Z,34.07
2022-08-03T10:24:27.379Z,33.71
2022-08-03T10:27:07.512Z,33.32
2022-08-03T10:29:39.572Z,32.96
2022-08-03T10:32:22.294Z,32.74
2022-08-03T10:34:52.332Z,32.60
2022-08-03T10:37:32.251Z,32.45
2022-08-03T10:40:01.006Z,32.14
2022-08-03T10:42:31.463Z,31.85
2022-08-03T10:45:16.568Z,31.62
2022-08-03T10:47:45.396Z,31.36
2022-08-03T10:50:13.469Z,31.03
2022-08-03T10:52:55.867Z,30.54
2022-08-03T10:55:51.614Z,30.01
2022-08-03T10:58:53.363Z,29.58
2022-08-03T11:02:00.304Z,29.28
2022-08-03T11:04:30.334Z,29.15
2022-08-03T11:07:17.609Z,29.11
2022-08-03T11:09:50.882Z,29.08
2022-08-03T11:12:21.331Z,29.08
2022-08-03T11:15:00.302Z,29.10
2022-08-03T11:17:28.189Z,29.01
2022-08-03T11:19:57.972Z,28.95
2022-08-03T11:22:28.292Z,28.97
2022-08-03T11:24:57.411Z,28.97
2022-08-03T11:27:27.461Z,28.99
2022-08-03T11:30:10.301Z,29.07
2022-08-03T11:32:38.342Z,29.18
2022-08-03T11:35:24.704Z,29.26
2022-08-03T11:38:03.604Z,29.32
2022-08-03T11:40:52.972Z,29.29
2022-08-03T11:43:37.499Z,29.17
2022-08-03T11:46:07.266Z,29.08
2022-08-03T11:48:37.924Z,28.99
2022-08-03T11:51:08.450Z,28.89
2022-08-03T11:53:42.122Z,28.88
2022-08-03T11:56:12.638Z,28.92
2022-08-03T11:58:57.732Z,29.00
2022-08-03T12:01:41.711Z,29.08
2022-08-03T12:04:10.828Z,29.06
2022-08-03T12:06:56.898Z,29.03
2022-08-03T12:09:24.629Z,29.09
2022-08-03T12:12:00.305Z,29.11
2022-08-03T12:14:50.624Z,29.06
2022-08-03T12:17:18.712Z,29.00
2022-08-03T12:19:46.757Z,28.95
2022-08-03T12:22:16.854Z,28.89
2022-08-03T12:24:46.777Z,28.82
2022-08-03T12:27:26.513Z,28.72
2022-08-03T12:29:58.237Z,28.62
2022-08-03T12:32:27.997Z,28.55
2022-08-03T12:35:05.986Z,28.50
2022-08-03T12:37:34.191Z,28.44
2022-08-03T12:40:10.032Z,28.39
2022-08-03T12:42:39.742Z,28.35
2022-08-03T12:45:24.043Z,28.32
2022-08-03T12:47:54.270Z,28.28
2022-08-03T12:50:33.476Z,28.24
2022-08-03T12:53:07.864Z,28.22
2022-08-03T12:55:56.253Z,28.21
2022-08-03T12:58:35.813Z,28.20
2022-08-03T13:01:10.168Z,28.25
2022-08-03T13:03:50.245Z,28.27
2022-08-03T13:06:25.622Z,28.20
2022-08-03T13:09:07.540Z,28.11
2022-08-03T13:11:57.966Z,28.09
2022-08-03T13:14:23.744Z,28.11
2022-08-03T13:16:52.141Z,28.09
2022-08-03T13:19:20.304Z,28.06
2022-08-03T13:22:01.289Z,28.04
2022-08-03T13:24:33.783Z,28.04
2022-08-03T13:28:01.811Z,28.03
2022-08-03T13:29:50.915Z,28.03
2022-08-03T13:32:18.926Z,28.04
2022-08-03T13:34:46.864Z,28.05
2022-08-03T13:37:15.644Z,28.05
2022-08-03T13:39:58.149Z,28.05
2022-08-03T13:42:31.999Z,28.05
2022-08-03T13:45:00.922Z,28.05
2022-08-03T13:47:28.846Z,28.03
2022-08-03T13:50:01.807Z,28.01
2022-08-03T13:52:36.228Z,27.96
2022-08-03T13:55:06.017Z,27.89
2022-08-03T13:58:04.905Z,27.87
2022-08-03T14:00:28.981Z,27.84
2022-08-03T14:03:12.509Z,27.79
2022-08-03T14:05:43.313Z,27.73
2022-08-03T14:08:11.970Z,27.68
2022-08-03T14:10:44.001Z,27.63
2022-08-03T14:13:14.483Z,27.59
2022-08-03T14:15:51.039Z,27.57
2022-08-03T14:18:28.733Z,27.55
2022-08-03T14:21:06.916Z,27.53
2022-08-03T14:23:36.888Z,27.50
2022-08-03T14:26:08.837Z,27.46
2022-08-03T14:28:36.605Z,27.42
2022-08-03T14:31:08.358Z,27.39
2022-08-03T14:33:43.284Z,27.37
2022-08-03T14:36:11.183Z,27.34
2022-08-03T14:38:38.953Z,27.31
2022-08-03T14:41:06.731Z,27.29
2022-08-03T14:43:40.198Z,27.28
2022-08-03T14:46:27.917Z,27.27
2022-08-03T14:50:34.601Z,27.24
2022-08-03T14:51:51.588Z,27.21
2022-08-03T14:54:22.827Z,27.18
2022-08-03T14:56:51.061Z,27.18
2022-08-03T14:59:18.847Z,27.17
2022-08-03T15:02:04.973Z,27.17
2022-08-03T15:04:34.280Z,27.18
2022-08-03T15:07:02.038Z,27.20
2022-08-03T15:09:29.741Z,27.24
2022-08-03T15:11:57.556Z,27.27
2022-08-03T15:14:32.278Z,27.29
2022-08-03T15:17:01.233Z,27.32
2022-08-03T15:20:01.078Z,27.35
2022-08-03T15:22:19.030Z,27.35
2022-08-03T15:24:48.760Z,27.36
2022-08-03T15:27:16.636Z,27.38
2022-08-03T15:30:09.433Z,27.39
2022-08-03T15:32:33.662Z,27.41
2022-08-03T15:35:01.617Z,27.43
2022-08-03T15:37:29.468Z,27.46
2022-08-03T15:39:59.603Z,27.52
2022-08-03T15:42:30.304Z,27.56
2022-08-03T15:44:58.475Z,27.54
2022-08-03T15:47:26.776Z,27.49
2022-08-03T15:49:54.725Z,27.45
2022-08-03T15:52:22.626Z,27.40
2022-08-03T15:54:50.609Z,27.33
2022-08-03T15:57:18.887Z,27.28
2022-08-03T15:59:47.167Z,27.29
2022-08-03T16:02:15.125Z,27.30
2022-08-03T16:04:43.085Z,27.29
2022-08-03T16:07:12.859Z,27.28
2022-08-03T16:09:43.235Z,27.25
2022-08-03T16:12:16.552Z,27.23
2022-08-03T16:14:52.696Z,27.19
2022-08-03T16:17:22.697Z,27.16
2022-08-03T16:19:54.716Z,27.12
2022-08-03T16:22:26.174Z,27.09
2022-08-03T16:24:54.766Z,27.06
2022-08-03T16:28:00.429Z,27.04
2022-08-03T16:30:12.869Z,27.04
2022-08-03T16:32:40.860Z,27.03
2022-08-03T16:35:09.297Z,27.02
2022-08-03T16:37:53.781Z,27.02
2022-08-03T16:40:26.102Z,27.01
2022-08-03T16:42:54.127Z,27.01
2022-08-03T16:45:21.963Z,27.00
2022-08-03T16:48:01.650Z,26.99
2022-08-03T16:50:35.292Z,26.97
2022-08-03T16:53:10.088Z,26.95
2022-08-03T16:55:52.138Z,26.94
2022-08-03T16:58:34.762Z,26.91
2022-08-03T17:01:21.913Z,26.88
2022-08-03T17:04:03.299Z,26.85
2022-08-03T17:06:36.881Z,26.84
2022-08-03T17:09:12.083Z,26.81
2022-08-03T17:11:44.162Z,26.78
2022-08-03T17:14:22.995Z,26.75
2022-08-03T17:17:01.623Z,26.71
2022-08-03T17:19:32.265Z,26.66
2022-08-03T17:22:04.208Z,26.63
2022-08-03T17:24:41.556Z,26.59
2022-08-03T17:28:42.291Z,26.55
2022-08-03T17:30:07.781Z,26.52
2022-08-03T17:32:42.350Z,26.49
2022-08-03T17:35:11.234Z,26.46
2022-08-03T17:37:58.387Z,26.44
2022-08-03T17:40:28.975Z,26.40
2022-08-03T17:43:00.807Z,26.35
2022-08-03T17:45:42.301Z,26.30
2022-08-03T17:48:17.807Z,26.22
2022-08-03T17:50:51.554Z,26.16
2022-08-03T17:53:24.296Z,26.07
2022-08-03T17:56:04.908Z,25.99
2022-08-03T17:59:14.916Z,25.89
2022-08-03T18:02:23.636Z,25.77
2022-08-03T18:07:59.539Z,25.50
2022-08-03T18:10:35.093Z,25.39
2022-08-03T18:13:14.287Z,25.28
2022-08-03T18:16:04.490Z,25.15
2022-08-03T18:18:43.198Z,25.01
2022-08-03T18:21:16.754Z,24.89
2022-08-03T18:23:46.122Z,24.78
2022-08-03T18:26:19.318Z,24.66
2022-08-03T18:28:49.263Z,24.55
2022-08-03T18:31:33.243Z,24.42
2022-08-03T18:34:16.433Z,24.27
2022-08-03T18:36:49.030Z,24.16
2022-08-03T18:39:19.654Z,24.05
2022-08-03T18:41:47.832Z,23.94
2022-08-03T18:44:53.181Z,23.83
2022-08-03T18:47:23.218Z,23.70
2022-08-03T18:50:03.347Z,23.57
2022-08-03T18:52:39.441Z,23.50
2022-08-03T18:55:35.455Z,23.42
2022-08-03T18:58:15.860Z,23.32
2022-08-03T19:01:03.524Z,23.25
2022-08-03T19:03:43.402Z,23.19
2022-08-03T19:06:20.005Z,23.13
2022-08-03T19:09:04.453Z,23.06
2022-08-03T19:12:13.926Z,22.96
2022-08-03T19:14:39.250Z,22.87
2022-08-03T19:17:11.047Z,22.76
2022-08-03T19:19:44.867Z,22.67
2022-08-03T19:22:16.002Z,22.57
2022-08-03T19:24:45.946Z,22.47
2022-08-03T19:27:15.919Z,22.36
2022-08-03T19:29:59.944Z,22.27
2022-08-03T19:32:31.700Z,22.20
2022-08-03T19:35:03.424Z,22.10
2022-08-03T19:37:38.083Z,22.01
2022-08-03T19:40:10.222Z,21.92
2022-08-03T19:42:40.930Z,21.86
2022-08-03T19:45:11.291Z,21.82
2022-08-03T19:47:51.590Z,21.79
2022-08-03T19:50:20.668Z,21.76
2022-08-03T19:52:50.083Z,21.72
2022-08-03T19:55:18.599Z,21.67
2022-08-03T20:00:38.344Z,21.53
2022-08-03T20:03:19.677Z,21.48
2022-08-03T20:05:52.223Z,21.43
2022-08-03T20:08:22.209Z,21.37
2022-08-03T20:13:39.162Z,21.26
2022-08-03T20:16:07.051Z,21.17
2022-08-03T20:18:39.423Z,21.07
2022-08-03T20:21:14.843Z,20.99
2022-08-03T20:24:02.758Z,20.92
2022-08-03T20:26:32.244Z,20.85
2022-08-03T20:29:09.144Z,20.80
2022-08-03T20:31:37.792Z,20.74
2022-08-03T20:34:06.947Z,20.68
2022-08-03T20:36:36.900Z,20.66
2022-08-03T20:39:07.746Z,20.62
2022-08-03T20:41:35.973Z,20.56
2022-08-03T20:44:04.744Z,20.52
2022-08-03T20:46:41.688Z,20.49
2022-08-03T20:49:23.090Z,20.46
2022-08-03T20:51:53.160Z,20.42
2022-08-03T20:54:30.826Z,20.38
2022-08-03T20:57:03.847Z,20.33
2022-08-03T20:59:50.582Z,20.29
2022-08-03T21:02:29.563Z,20.24
2022-08-03T21:05:02.998Z,20.22
2022-08-03T21:08:06.324Z,20.18
2022-08-03T21:10:39.645Z,20.13
2022-08-03T21:13:03.563Z,21.32
2022-08-03T21:13:05.312Z,25.62
2022-08-03T21:13:08.996Z,21.60
2022-08-03T21:13:23.795Z,20.09
2022-08-03T21:16:07.015Z,20.03
2022-08-03T21:18:49.221Z,20.00
2022-08-03T21:21:20.136Z,19.97
2022-08-03T21:23:52.696Z,19.92
2022-08-03T21:26:22.978Z,19.85
2022-08-03T21:28:52.931Z,19.80
2022-08-03T21:31:25.719Z,19.74
2022-08-03T21:34:01.721Z,19.69
2022-08-03T21:36:32.709Z,19.63
2022-08-03T21:39:01.426Z,19.58
2022-08-03T21:41:31.977Z,19.55
2022-08-03T21:44:01.123Z,19.50
2022-08-03T21:46:35.170Z,19.46
2022-08-03T21:49:52.090Z,19.43
2022-08-03T21:51:54.533Z,19.38
2022-08-03T21:54:27.207Z,19.33
2022-08-03T21:56:54.995Z,19.29
2022-08-03T21:59:23.704Z,19.27
2022-08-03T22:01:55.422Z,19.23
2022-08-03T22:04:37.209Z,19.18
2022-08-03T22:07:15.925Z,19.13
2022-08-03T22:09:51.363Z,19.08
2022-08-03T22:12:22.730Z,19.04
2022-08-03T22:15:00.443Z,19.00
2022-08-03T22:17:55.837Z,18.96
2022-08-03T22:20:20.392Z,18.91
2022-08-03T22:22:54.947Z,18.88
2022-08-03T22:25:29.177Z,18.85
2022-08-03T22:27:58.210Z,18.84
2022-08-03T22:30:26.685Z,18.83
2022-08-03T22:32:56.367Z,18.82
2022-08-03T22:35:25.845Z,18.84
2022-08-03T22:37:57.298Z,18.85
2022-08-03T22:40:27.182Z,18.88
2022-08-03T22:42:55.189Z,18.92
2022-08-03T22:45:45.545Z,18.94
2022-08-03T22:48:11.223Z,18.97
2022-08-03T22:50:39.475Z,18.97
2022-08-03T22:53:07.683Z,18.97
2022-08-03T22:55:36.971Z,18.97
2022-08-03T22:58:04.691Z,18.97
2022-08-03T23:00:32.423Z,18.97
2022-08-03T23:03:02.626Z,18.97
2022-08-03T23:06:02.231Z,18.95
2022-08-03T23:08:25.182Z,18.91
2022-08-03T23:10:56.629Z,18.88
2022-08-03T23:13:25.464Z,18.86
2022-08-03T23:15:58.114Z,18.82
2022-08-03T23:18:31.181Z,18.78
2022-08-03T23:21:09.233Z,18.72
2022-08-03T23:23:44.155Z,18.70
2022-08-03T23:26:15.582Z,18.66
2022-08-03T23:28:47.223Z,18.63
2022-08-03T23:31:15.749Z,18.58
2022-08-03T23:33:45.722Z,18.54
2022-08-03T23:36:30.410Z,18.51
2022-08-03T23:39:02.472Z,18.48
2022-08-03T23:41:32.029Z,18.45
2022-08-03T23:44:03.639Z,18.42
2022-08-03T23:46:32.757Z,18.39
2022-08-03T23:49:00.524Z,18.34
2022-08-03T23:52:05.574Z,18.28
2022-08-03T23:54:58.357Z,18.22
2022-08-03T23:57:47.309Z,18.18
